Hlavní strana
METAR-TAF:

METAR-TAF

Letiště :

Carmi Municipal Airport

Carmi, Illinois, Spojené státy americké

zeměpisná šířka: 38-05-22N, zeměpisná délka: 088-07-23W, výška: 118 m

Aktuální stav počasí

Zpráva byla vytvořena před 27 minutami, v 09:35 UTC
Severní vítr 6 kt
Teplota 6°C
Vlhkost vzduchu 100%
Tlak 1014 hPa
Viditelnost: 8.0 km
Zataženo ve výšce 700 ft
mrholení

METAR: KCUL 240935Z AUTO 36006KT 5SM DZ OVC007 06/06 A2994 RMK AO2 P0002

Čas: 04:02 (10:02 UTC)


TAF: chybějící

Stav a předpovědi počasí z více než 4 000 letišť (zprávy METAR a TAF).

Červené a žluté tečky na mapě představují dostupné meteorologické stanice.

Když kurzor umístíte na tečku, zobrazí se název stanice.

Pak kliknutím zobrazíte stav a předpověď počasí.

Chcete-li změnit mapu, kliknutím na zelené tlačítko se znaménkem +mapu přiblížíte, kliknutím na zelené tlačítko se znaménkem – mapu oddálíte a kliknutím na zelené šipky přejdete na sousední mapy.


METAR-TAF: